sensor_id;sensor_type;location;lat;lon;timestamp;pressure;altitude;pressure_sealevel;temperature;humidity
19845;BME280;10083;51.038;7.012;2023-05-25T00:01:19;103844.94;;;9.84;100.00
19845;BME280;10083;51.038;7.012;2023-05-25T00:03:46;103867.38;;;9.87;100.00
19845;BME280;10083;51.038;7.012;2023-05-25T00:06:16;103893.34;;;9.91;100.00
19845;BME280;10083;51.038;7.012;2023-05-25T00:08:44;103916.53;;;9.91;100.00
19845;BME280;10083;51.038;7.012;2023-05-25T00:11:16;103939.28;;;9.77;100.00
19845;BME280;10083;51.038;7.012;2023-05-25T00:13:44;103949.00;;;9.73;100.00
19845;BME280;10083;51.038;7.012;2023-05-25T00:16:13;103958.72;;;9.71;100.00
19845;BME280;10083;51.038;7.012;2023-05-25T00:18:40;103959.69;;;9.73;100.00
19845;BME280;10083;51.038;7.012;2023-05-25T00:21:11;103972.88;;;9.67;100.00
19845;BME280;10083;51.038;7.012;2023-05-25T00:23:41;103987.84;;;9.61;100.00
19845;BME280;10083;51.038;7.012;2023-05-25T00:26:08;104015.44;;;9.60;100.00
19845;BME280;10083;51.038;7.012;2023-05-25T00:28:38;104017.81;;;9.50;100.00
19845;BME280;10083;51.038;7.012;2023-05-25T00:31:05;104038.13;;;9.45;100.00
19845;BME280;10083;51.038;7.012;2023-05-25T00:33:38;104043.56;;;9.47;100.00
19845;BME280;10083;51.038;7.012;2023-05-25T00:36:05;104066.06;;;9.53;100.00
19845;BME280;10083;51.038;7.012;2023-05-25T00:38:38;104095.28;;;9.47;100.00
19845;BME280;10083;51.038;7.012;2023-05-25T00:41:06;104104.75;;;9.38;100.00
19845;BME280;10083;51.038;7.012;2023-05-25T00:43:37;104123.25;;;9.32;100.00
19845;BME280;10083;51.038;7.012;2023-05-25T00:46:05;104139.13;;;9.27;100.00
19845;BME280;10083;51.038;7.012;2023-05-25T00:48:40;104140.16;;;9.31;100.00
19845;BME280;10083;51.038;7.012;2023-05-25T00:51:08;104157.09;;;9.31;100.00
19845;BME280;10083;51.038;7.012;2023-05-25T00:53:36;104174.06;;;9.32;100.00
19845;BME280;10083;51.038;7.012;2023-05-25T00:56:07;104198.09;;;9.30;100.00
19845;BME280;10083;51.038;7.012;2023-05-25T00:58:53;104224.47;;;9.21;100.00
19845;BME280;10083;51.038;7.012;2023-05-25T01:01:24;104243.38;;;9.26;100.00
19845;BME280;10083;51.038;7.012;2023-05-25T01:03:55;104275.41;;;9.24;100.00
19845;BME280;10083;51.038;7.012;2023-05-25T01:06:25;104288.38;;;9.14;100.00
19845;BME280;10083;51.038;7.012;2023-05-25T01:09:07;104299.75;;;9.09;100.00
19845;BME280;10083;51.038;7.012;2023-05-25T01:11:35;104317.59;;;9.09;100.00
19845;BME280;10083;51.038;7.012;2023-05-25T01:14:07;104328.41;;;9.12;100.00
19845;BME280;10083;51.038;7.012;2023-05-25T01:16:35;104360.31;;;9.07;100.00
19845;BME280;10083;51.038;7.012;2023-05-25T01:19:11;104372.75;;;9.07;100.00
19845;BME280;10083;51.038;7.012;2023-05-25T01:21:43;104412.59;;;9.01;100.00
19845;BME280;10083;51.038;7.012;2023-05-25T01:24:20;104429.34;;;8.97;100.00
19845;BME280;10083;51.038;7.012;2023-05-25T01:26:54;104434.44;;;8.91;100.00
19845;BME280;10083;51.038;7.012;2023-05-25T01:29:25;104469.13;;;8.89;100.00
19845;BME280;10083;51.038;7.012;2023-05-25T01:32:02;104483.28;;;8.87;100.00
19845;BME280;10083;51.038;7.012;2023-05-25T01:34:32;104508.03;;;8.83;100.00
19845;BME280;10083;51.038;7.012;2023-05-25T01:37:01;104546.13;;;8.98;100.00
19845;BME280;10083;51.038;7.012;2023-05-25T01:39:29;104579.50;;;8.87;100.00
19845;BME280;10083;51.038;7.012;2023-05-25T01:41:58;104594.81;;;8.91;100.00
19845;BME280;10083;51.038;7.012;2023-05-25T01:44:26;104623.66;;;8.98;100.00
19845;BME280;10083;51.038;7.012;2023-05-25T01:47:07;104633.28;;;8.75;100.00
19845;BME280;10083;51.038;7.012;2023-05-25T01:49:41;104654.47;;;8.90;100.00
19845;BME280;10083;51.038;7.012;2023-05-25T01:52:57;104668.09;;;8.77;100.00
19845;BME280;10083;51.038;7.012;2023-05-25T01:55:30;104687.50;;;8.73;100.00
19845;BME280;10083;51.038;7.012;2023-05-25T01:58:04;104719.81;;;8.59;100.00
19845;BME280;10083;51.038;7.012;2023-05-25T02:00:33;104743.03;;;8.60;100.00
19845;BME280;10083;51.038;7.012;2023-05-25T02:03:09;104772.44;;;8.60;100.00
19845;BME280;10083;51.038;7.012;2023-05-25T02:05:37;104811.50;;;8.58;100.00
19845;BME280;10083;51.038;7.012;2023-05-25T02:08:09;104853.03;;;8.52;100.00
19845;BME280;10083;51.038;7.012;2023-05-25T02:10:36;104911.63;;;8.49;100.00
19845;BME280;10083;51.038;7.012;2023-05-25T02:13:08;104957.66;;;8.43;100.00
19845;BME280;10083;51.038;7.012;2023-05-25T02:15:35;105004.03;;;8.45;100.00
19845;BME280;10083;51.038;7.012;2023-05-25T02:18:02;105073.28;;;8.57;100.00
19845;BME280;10083;51.038;7.012;2023-05-25T02:20:30;105130.88;;;8.68;100.00
19845;BME280;10083;51.038;7.012;2023-05-25T02:22:57;105158.94;;;8.60;100.00
19845;BME280;10083;51.038;7.012;2023-05-25T02:25:25;105220.50;;;8.78;100.00
19845;BME280;10083;51.038;7.012;2023-05-25T02:27:54;105241.00;;;8.62;100.00
19845;BME280;10083;51.038;7.012;2023-05-25T02:30:21;105267.81;;;8.64;100.00
19845;BME280;10083;51.038;7.012;2023-05-25T02:33:08;105288.41;;;8.50;100.00
19845;BME280;10083;51.038;7.012;2023-05-25T02:35:36;105294.22;;;8.43;100.00
19845;BME280;10083;51.038;7.012;2023-05-25T02:38:05;105303.16;;;8.44;100.00
19845;BME280;10083;51.038;7.012;2023-05-25T02:40:34;105321.59;;;8.39;100.00
19845;BME280;10083;51.038;7.012;2023-05-25T02:43:03;105369.56;;;8.38;100.00
19845;BME280;10083;51.038;7.012;2023-05-25T02:45:30;105387.06;;;8.33;100.00
19845;BME280;10083;51.038;7.012;2023-05-25T02:48:02;105438.56;;;8.30;100.00
19845;BME280;10083;51.038;7.012;2023-05-25T02:50:31;105499.13;;;8.31;100.00
19845;BME280;10083;51.038;7.012;2023-05-25T02:53:09;105529.38;;;8.30;100.00
19845;BME280;10083;51.038;7.012;2023-05-25T02:55:38;105566.44;;;8.26;100.00
19845;BME280;10083;51.038;7.012;2023-05-25T02:58:10;105604.16;;;8.17;100.00
19845;BME280;10083;51.038;7.012;2023-05-25T03:00:50;105645.13;;;8.17;100.00
19845;BME280;10083;51.038;7.012;2023-05-25T03:03:19;105706.44;;;8.16;100.00
19845;BME280;10083;51.038;7.012;2023-05-25T03:05:47;105776.50;;;8.12;100.00
19845;BME280;10083;51.038;7.012;2023-05-25T03:08:14;105834.00;;;8.07;100.00
19845;BME280;10083;51.038;7.012;2023-05-25T03:10:42;105884.13;;;8.11;100.00
19845;BME280;10083;51.038;7.012;2023-05-25T03:13:11;105921.13;;;7.93;100.00
19845;BME280;10083;51.038;7.012;2023-05-25T03:15:38;105976.06;;;7.90;100.00
19845;BME280;10083;51.038;7.012;2023-05-25T03:18:05;106051.84;;;7.92;100.00
19845;BME280;10083;51.038;7.012;2023-05-25T03:20:36;106141.44;;;8.00;100.00
19845;BME280;10083;51.038;7.012;2023-05-25T03:23:03;106194.00;;;8.01;100.00
19845;BME280;10083;51.038;7.012;2023-05-25T03:25:32;106296.53;;;8.14;100.00
19845;BME280;10083;51.038;7.012;2023-05-25T03:28:11;106361.56;;;8.15;100.00
19845;BME280;10083;51.038;7.012;2023-05-25T03:30:38;106429.50;;;8.18;100.00
19845;BME280;10083;51.038;7.012;2023-05-25T03:33:05;106473.28;;;8.09;100.00
19845;BME280;10083;51.038;7.012;2023-05-25T03:35:39;106496.63;;;7.90;100.00
19845;BME280;10083;51.038;7.012;2023-05-25T03:38:07;106557.06;;;7.99;100.00
19845;BME280;10083;51.038;7.012;2023-05-25T03:40:34;106604.97;;;7.98;100.00
19845;BME280;10083;51.038;7.012;2023-05-25T03:43:04;106706.25;;;8.16;100.00
19845;BME280;10083;51.038;7.012;2023-05-25T03:45:32;106824.03;;;8.30;100.00
19845;BME280;10083;51.038;7.012;2023-05-25T03:48:09;106900.59;;;8.29;100.00
19845;BME280;10083;51.038;7.012;2023-05-25T03:50:37;107004.75;;;8.49;100.00
19845;BME280;10083;51.038;7.012;2023-05-25T03:53:10;107116.91;;;8.68;100.00
19845;BME280;10083;51.038;7.012;2023-05-25T03:55:38;107242.06;;;8.82;100.00
19845;BME280;10083;51.038;7.012;2023-05-25T03:58:05;107307.94;;;8.72;100.00
19845;BME280;10083;51.038;7.012;2023-05-25T04:00:36;107379.59;;;8.76;100.00
19845;BME280;10083;51.038;7.012;2023-05-25T04:03:04;107470.94;;;8.80;100.00
19845;BME280;10083;51.038;7.012;2023-05-25T04:05:31;107570.06;;;8.82;100.00
19845;BME280;10083;51.038;7.012;2023-05-25T04:08:01;107704.72;;;9.01;100.00
19845;BME280;10083;51.038;7.012;2023-05-25T04:10:28;107843.97;;;9.11;100.00
19845;BME280;10083;51.038;7.012;2023-05-25T04:13:00;107950.53;;;9.15;100.00
19845;BME280;10083;51.038;7.012;2023-05-25T04:15:27;108003.25;;;9.16;100.00
19845;BME280;10083;51.038;7.012;2023-05-25T04:18:30;108138.16;;;9.18;100.00
19845;BME280;10083;51.038;7.012;2023-05-25T04:20:58;108231.22;;;9.21;100.00
19845;BME280;10083;51.038;7.012;2023-05-25T04:23:26;108340.22;;;9.30;100.00
19845;BME280;10083;51.038;7.012;2023-05-25T04:25:53;108369.81;;;9.40;100.00
19845;BME280;10083;51.038;7.012;2023-05-25T04:28:21;108427.00;;;9.49;100.00
19845;BME280;10083;51.038;7.012;2023-05-25T04:31:04;108465.16;;;9.56;100.00
19845;BME280;10083;51.038;7.012;2023-05-25T04:33:47;108472.25;;;9.64;100.00
19845;BME280;10083;51.038;7.012;2023-05-25T04:36:19;108513.91;;;9.77;100.00
19845;BME280;10083;51.038;7.012;2023-05-25T04:38:47;108561.69;;;9.90;100.00
19845;BME280;10083;51.038;7.012;2023-05-25T04:41:18;108567.81;;;9.89;100.00
19845;BME280;10083;51.038;7.012;2023-05-25T04:43:49;108560.91;;;9.91;100.00
19845;BME280;10083;51.038;7.012;2023-05-25T04:46:18;108530.19;;;9.96;100.00
19845;BME280;10083;51.038;7.012;2023-05-25T04:48:47;108550.53;;;10.03;100.00
19845;BME280;10083;51.038;7.012;2023-05-25T04:51:19;108534.13;;;9.99;100.00
19845;BME280;10083;51.038;7.012;2023-05-25T04:53:47;108518.19;;;10.01;100.00
19845;BME280;10083;51.038;7.012;2023-05-25T04:56:14;108522.47;;;10.08;100.00
19845;BME280;10083;51.038;7.012;2023-05-25T04:58:42;108537.94;;;10.19;100.00
19845;BME280;10083;51.038;7.012;2023-05-25T05:01:09;108547.28;;;10.22;100.00
19845;BME280;10083;51.038;7.012;2023-05-25T05:03:37;108583.56;;;10.36;100.00
19845;BME280;10083;51.038;7.012;2023-05-25T05:06:05;108590.34;;;10.50;100.00
19845;BME280;10083;51.038;7.012;2023-05-25T05:08:33;108610.84;;;10.58;100.00
19845;BME280;10083;51.038;7.012;2023-05-25T05:11:00;108585.31;;;10.61;100.00
19845;BME280;10083;51.038;7.012;2023-05-25T05:13:27;108536.69;;;10.67;100.00
19845;BME280;10083;51.038;7.012;2023-05-25T05:15:55;108496.41;;;10.75;100.00
19845;BME280;10083;51.038;7.012;2023-05-25T05:18:22;108470.97;;;10.89;100.00
19845;BME280;10083;51.038;7.012;2023-05-25T05:20:50;108401.91;;;10.97;100.00
19845;BME280;10083;51.038;7.012;2023-05-25T05:23:20;108324.16;;;11.07;100.00
19845;BME280;10083;51.038;7.012;2023-05-25T05:25:49;108231.50;;;11.20;100.00
19845;BME280;10083;51.038;7.012;2023-05-25T05:28:16;108174.66;;;11.34;100.00
19845;BME280;10083;51.038;7.012;2023-05-25T05:30:44;108112.66;;;11.42;100.00
19845;BME280;10083;51.038;7.012;2023-05-25T05:33:23;108050.38;;;11.56;100.00
19845;BME280;10083;51.038;7.012;2023-05-25T05:35:50;107965.22;;;11.65;100.00
19845;BME280;10083;51.038;7.012;2023-05-25T05:38:24;107902.06;;;11.60;100.00
19845;BME280;10083;51.038;7.012;2023-05-25T05:40:51;107880.03;;;11.64;100.00
19845;BME280;10083;51.038;7.012;2023-05-25T05:43:30;107872.25;;;11.77;100.00
19845;BME280;10083;51.038;7.012;2023-05-25T05:45:57;107836.50;;;11.78;100.00
19845;BME280;10083;51.038;7.012;2023-05-25T05:48:25;107794.16;;;11.86;100.00
19845;BME280;10083;51.038;7.012;2023-05-25T05:50:52;107688.06;;;11.92;100.00
19845;BME280;10083;51.038;7.012;2023-05-25T05:53:27;107621.31;;;12.08;100.00
19845;BME280;10083;51.038;7.012;2023-05-25T05:55:54;107505.00;;;12.11;100.00
19845;BME280;10083;51.038;7.012;2023-05-25T05:58:34;107410.06;;;12.23;100.00
19845;BME280;10083;51.038;7.012;2023-05-25T06:01:01;107281.91;;;12.24;100.00
19845;BME280;10083;51.038;7.012;2023-05-25T06:03:49;107127.94;;;12.27;100.00
19845;BME280;10083;51.038;7.012;2023-05-25T06:06:18;107007.28;;;12.44;100.00
19845;BME280;10083;51.038;7.012;2023-05-25T06:08:48;106891.38;;;12.54;100.00
19845;BME280;10083;51.038;7.012;2023-05-25T06:11:15;106804.63;;;12.72;100.00
19845;BME280;10083;51.038;7.012;2023-05-25T06:13:44;106689.06;;;12.88;100.00
19845;BME280;10083;51.038;7.012;2023-05-25T06:16:11;106537.97;;;12.96;100.00
19845;BME280;10083;51.038;7.012;2023-05-25T06:18:54;106408.16;;;13.02;100.00
19845;BME280;10083;51.038;7.012;2023-05-25T06:21:21;106246.44;;;13.13;100.00
19845;BME280;10083;51.038;7.012;2023-05-25T06:23:56;106130.44;;;13.27;100.00
19845;BME280;10083;51.038;7.012;2023-05-25T06:26:25;106065.59;;;13.40;100.00
19845;BME280;10083;51.038;7.012;2023-05-25T06:29:04;105947.44;;;13.47;100.00
19845;BME280;10083;51.038;7.012;2023-05-25T06:31:31;105855.50;;;13.59;100.00
19845;BME280;10083;51.038;7.012;2023-05-25T06:33:59;105762.72;;;13.73;100.00
19845;BME280;10083;51.038;7.012;2023-05-25T06:36:26;105672.28;;;13.80;100.00
19845;BME280;10083;51.038;7.012;2023-05-25T06:38:56;105577.34;;;13.87;100.00
19845;BME280;10083;51.038;7.012;2023-05-25T06:41:23;105483.78;;;14.07;100.00
19845;BME280;10083;51.038;7.012;2023-05-25T06:43:51;105396.72;;;14.09;100.00
19845;BME280;10083;51.038;7.012;2023-05-25T06:46:29;105296.38;;;14.18;100.00
19845;BME280;10083;51.038;7.012;2023-05-25T06:49:04;105230.38;;;14.33;100.00
19845;BME280;10083;51.038;7.012;2023-05-25T06:51:32;105161.59;;;14.46;100.00
19845;BME280;10083;51.038;7.012;2023-05-25T06:54:01;105175.56;;;14.61;100.00
19845;BME280;10083;51.038;7.012;2023-05-25T06:56:28;105142.41;;;14.65;100.00
19845;BME280;10083;51.038;7.012;2023-05-25T06:59:02;105116.00;;;14.85;100.00
19845;BME280;10083;51.038;7.012;2023-05-25T07:01:29;105085.84;;;15.00;100.00
19845;BME280;10083;51.038;7.012;2023-05-25T07:04:02;105057.44;;;15.14;100.00
19845;BME280;10083;51.038;7.012;2023-05-25T07:06:29;105024.38;;;15.24;100.00
19845;BME280;10083;51.038;7.012;2023-05-25T07:09:09;104995.94;;;15.38;100.00
19845;BME280;10083;51.038;7.012;2023-05-25T07:11:36;104976.38;;;15.48;100.00
19845;BME280;10083;51.038;7.012;2023-05-25T07:14:23;104987.72;;;15.71;100.00
19845;BME280;10083;51.038;7.012;2023-05-25T07:16:50;104939.50;;;15.88;100.00
19845;BME280;10083;51.038;7.012;2023-05-25T07:19:18;104917.25;;;16.01;100.00
19845;BME280;10083;51.038;7.012;2023-05-25T07:21:45;104880.06;;;15.91;100.00
19845;BME280;10083;51.038;7.012;2023-05-25T07:24:16;104861.50;;;16.09;100.00
19845;BME280;10083;51.038;7.012;2023-05-25T07:26:44;104821.53;;;16.42;100.00
19845;BME280;10083;51.038;7.012;2023-05-25T07:29:11;104842.16;;;16.34;100.00
19845;BME280;10083;51.038;7.012;2023-05-25T07:31:38;104818.28;;;16.60;100.00
19845;BME280;10083;51.038;7.012;2023-05-25T07:34:13;104846.59;;;16.32;100.00
19845;BME280;10083;51.038;7.012;2023-05-25T07:36:40;104840.31;;;16.33;100.00
19845;BME280;10083;51.038;7.012;2023-05-25T07:39:11;104780.16;;;16.48;100.00
19845;BME280;10083;51.038;7.012;2023-05-25T07:41:39;104805.63;;;16.57;100.00
19845;BME280;10083;51.038;7.012;2023-05-25T07:44:13;104794.38;;;16.87;100.00
19845;BME280;10083;51.038;7.012;2023-05-25T07:46:41;104782.28;;;16.67;100.00
19845;BME280;10083;51.038;7.012;2023-05-25T07:49:10;104769.72;;;16.69;100.00
19845;BME280;10083;51.038;7.012;2023-05-25T07:51:40;104764.47;;;16.81;100.00
19845;BME280;10083;51.038;7.012;2023-05-25T07:54:07;104776.53;;;17.03;100.00
19845;BME280;10083;51.038;7.012;2023-05-25T07:56:39;104799.06;;;16.99;100.00
19845;BME280;10083;51.038;7.012;2023-05-25T07:59:08;104802.81;;;17.10;100.00
19845;BME280;10083;51.038;7.012;2023-05-25T08:01:35;104809.75;;;17.54;100.00
19845;BME280;10083;51.038;7.012;2023-05-25T08:04:03;104837.19;;;17.77;100.00
19845;BME280;10083;51.038;7.012;2023-05-25T08:06:30;104857.44;;;18.05;100.00
19845;BME280;10083;51.038;7.012;2023-05-25T08:08:59;104863.91;;;18.19;100.00
19845;BME280;10083;51.038;7.012;2023-05-25T08:11:28;104873.84;;;18.17;100.00
19845;BME280;10083;51.038;7.012;2023-05-25T08:13:58;104869.41;;;18.25;100.00
19845;BME280;10083;51.038;7.012;2023-05-25T08:16:25;104867.16;;;17.89;100.00
19845;BME280;10083;51.038;7.012;2023-05-25T08:19:00;104832.59;;;17.72;100.00
19845;BME280;10083;51.038;7.012;2023-05-25T08:21:27;104882.22;;;18.38;100.00
19845;BME280;10083;51.038;7.012;2023-05-25T08:23:55;104912.19;;;18.49;100.00
19845;BME280;10083;51.038;7.012;2023-05-25T08:26:48;104922.69;;;19.03;100.00
19845;BME280;10083;51.038;7.012;2023-05-25T08:29:19;104936.19;;;18.94;100.00
19845;BME280;10083;51.038;7.012;2023-05-25T08:31:50;104924.69;;;19.30;100.00
19845;BME280;10083;51.038;7.012;2023-05-25T08:34:17;104931.13;;;18.43;100.00
19845;BME280;10083;51.038;7.012;2023-05-25T08:36:45;104890.28;;;18.32;100.00
19845;BME280;10083;51.038;7.012;2023-05-25T08:39:13;104912.16;;;18.47;100.00
19845;BME280;10083;51.038;7.012;2023-05-25T08:41:43;104911.81;;;19.03;100.00
19845;BME280;10083;51.038;7.012;2023-05-25T08:44:11;104953.00;;;19.55;100.00
19845;BME280;10083;51.038;7.012;2023-05-25T08:46:42;104927.78;;;19.86;100.00
19845;BME280;10083;51.038;7.012;2023-05-25T08:49:13;104902.44;;;19.99;100.00
19845;BME280;10083;51.038;7.012;2023-05-25T08:51:47;104887.94;;;19.99;100.00
19845;BME280;10083;51.038;7.012;2023-05-25T08:54:17;104898.84;;;20.00;100.00
19845;BME280;10083;51.038;7.012;2023-05-25T08:56:48;104913.53;;;20.60;100.00
19845;BME280;10083;51.038;7.012;2023-05-25T08:59:29;104921.72;;;20.78;100.00
19845;BME280;10083;51.038;7.012;2023-05-25T09:02:05;104872.41;;;19.76;100.00
19845;BME280;10083;51.038;7.012;2023-05-25T09:04:34;104857.03;;;19.78;100.00
19845;BME280;10083;51.038;7.012;2023-05-25T09:07:04;104898.06;;;20.32;100.00
19845;BME280;10083;51.038;7.012;2023-05-25T09:09:32;104881.66;;;20.27;100.00
19845;BME280;10083;51.038;7.012;2023-05-25T09:12:04;104886.28;;;20.63;100.00
19845;BME280;10083;51.038;7.012;2023-05-25T09:14:32;104859.84;;;20.16;100.00
19845;BME280;10083;51.038;7.012;2023-05-25T09:17:02;104889.78;;;20.19;100.00
19845;BME280;10083;51.038;7.012;2023-05-25T09:19:29;104869.03;;;20.52;100.00
19845;BME280;10083;51.038;7.012;2023-05-25T09:21:59;104894.44;;;20.40;100.00
19845;BME280;10083;51.038;7.012;2023-05-25T09:24:27;104901.75;;;20.58;100.00
19845;BME280;10083;51.038;7.012;2023-05-25T09:27:10;104891.41;;;19.64;100.00
19845;BME280;10083;51.038;7.012;2023-05-25T09:29:38;104920.59;;;20.00;100.00
19845;BME280;10083;51.038;7.012;2023-05-25T09:32:17;104933.53;;;20.91;100.00
19845;BME280;10083;51.038;7.012;2023-05-25T09:34:44;104929.88;;;20.84;100.00
19845;BME280;10083;51.038;7.012;2023-05-25T09:37:27;104897.97;;;20.18;100.00
19845;BME280;10083;51.038;7.012;2023-05-25T09:39:57;104914.22;;;19.95;100.00
19845;BME280;10083;51.038;7.012;2023-05-25T09:42:25;104935.31;;;20.48;100.00
19845;BME280;10083;51.038;7.012;2023-05-25T09:44:52;104927.19;;;21.10;100.00
19845;BME280;10083;51.038;7.012;2023-05-25T09:47:22;104894.34;;;21.63;100.00
19845;BME280;10083;51.038;7.012;2023-05-25T09:49:51;104930.75;;;21.59;100.00
19845;BME280;10083;51.038;7.012;2023-05-25T09:52:20;104871.75;;;20.50;100.00
19845;BME280;10083;51.038;7.012;2023-05-25T09:54:48;104903.56;;;20.62;100.00
19845;BME280;10083;51.038;7.012;2023-05-25T09:57:26;104885.19;;;21.85;100.00
19845;BME280;10083;51.038;7.012;2023-05-25T09:59:52;104809.59;;;21.99;100.00
19845;BME280;10083;51.038;7.012;2023-05-25T10:02:20;104709.75;;;22.67;100.00
19845;BME280;10083;51.038;7.012;2023-05-25T10:04:48;104695.66;;;23.07;100.00
19845;BME280;10083;51.038;7.012;2023-05-25T10:07:24;104695.03;;;23.55;100.00
19845;BME280;10083;51.038;7.012;2023-05-25T10:09:53;104562.19;;;23.85;100.00
19845;BME280;10083;51.038;7.012;2023-05-25T10:12:34;104499.28;;;22.67;100.00
19845;BME280;10083;51.038;7.012;2023-05-25T10:15:02;104616.28;;;21.31;100.00
19845;BME280;10083;51.038;7.012;2023-05-25T10:17:39;104758.03;;;22.71;100.00
19845;BME280;10083;51.038;7.012;2023-05-25T10:20:10;104541.16;;;22.75;100.00
19845;BME280;10083;51.038;7.012;2023-05-25T10:22:47;104677.06;;;21.51;100.00
19845;BME280;10083;51.038;7.012;2023-05-25T10:25:25;104714.88;;;22.06;100.00
19845;BME280;10083;51.038;7.012;2023-05-25T10:27:56;104607.75;;;22.67;100.00
19845;BME280;10083;51.038;7.012;2023-05-25T10:30:26;104606.69;;;21.96;100.00
19845;BME280;10083;51.038;7.012;2023-05-25T10:32:53;104624.50;;;24.24;100.00
19845;BME280;10083;51.038;7.012;2023-05-25T10:35:23;104473.00;;;21.85;100.00
19845;BME280;10083;51.038;7.012;2023-05-25T10:37:51;104659.13;;;21.00;100.00
19845;BME280;10083;51.038;7.012;2023-05-25T10:40:25;104644.75;;;22.11;100.00
19845;BME280;10083;51.038;7.012;2023-05-25T10:42:53;104574.97;;;23.28;100.00
19845;BME280;10083;51.038;7.012;2023-05-25T10:45:21;104249.22;;;24.20;100.00
19845;BME280;10083;51.038;7.012;2023-05-25T10:47:48;103989.81;;;25.65;100.00
19845;BME280;10083;51.038;7.012;2023-05-25T10:50:20;103791.25;;;25.39;100.00
19845;BME280;10083;51.038;7.012;2023-05-25T10:53:01;103777.53;;;26.10;100.00
19845;BME280;10083;51.038;7.012;2023-05-25T10:55:41;103603.50;;;26.72;100.00
19845;BME280;10083;51.038;7.012;2023-05-25T10:58:09;103541.81;;;25.96;100.00
19845;BME280;10083;51.038;7.012;2023-05-25T11:00:59;103475.13;;;26.33;100.00
19845;BME280;10083;51.038;7.012;2023-05-25T11:07:05;103793.09;;;24.04;100.00
19845;BME280;10083;51.038;7.012;2023-05-25T11:09:55;103725.66;;;24.82;100.00
19845;BME280;10083;51.038;7.012;2023-05-25T11:12:22;103645.66;;;25.88;100.00
19845;BME280;10083;51.038;7.012;2023-05-25T11:15:10;103603.19;;;26.17;100.00
19845;BME280;10083;51.038;7.012;2023-05-25T11:18:03;103540.94;;;25.96;100.00
19845;BME280;10083;51.038;7.012;2023-05-25T11:20:30;103625.19;;;24.54;100.00
19845;BME280;10083;51.038;7.012;2023-05-25T11:26:03;103581.13;;;26.40;100.00
19845;BME280;10083;51.038;7.012;2023-05-25T11:28:30;103502.28;;;26.00;100.00
19845;BME280;10083;51.038;7.012;2023-05-25T11:30:59;103570.06;;;25.56;100.00
19845;BME280;10083;51.038;7.012;2023-05-25T11:33:26;103436.56;;;27.28;100.00
19845;BME280;10083;51.038;7.012;2023-05-25T11:35:56;103487.75;;;26.76;100.00
19845;BME280;10083;51.038;7.012;2023-05-25T11:38:23;103589.69;;;24.51;100.00
19845;BME280;10083;51.038;7.012;2023-05-25T11:40:57;103803.47;;;23.31;100.00
19845;BME280;10083;51.038;7.012;2023-05-25T11:43:25;103826.28;;;25.32;100.00
19845;BME280;10083;51.038;7.012;2023-05-25T11:46:07;103720.03;;;24.60;100.00
19845;BME280;10083;51.038;7.012;2023-05-25T11:48:35;103578.66;;;25.71;100.00
19845;BME280;10083;51.038;7.012;2023-05-25T11:51:14;103581.75;;;24.19;100.00
19845;BME280;10083;51.038;7.012;2023-05-25T11:53:48;103704.03;;;24.20;100.00
19845;BME280;10083;51.038;7.012;2023-05-25T11:56:18;103522.78;;;25.92;100.00
19845;BME280;10083;51.038;7.012;2023-05-25T11:58:46;103477.88;;;26.13;100.00
19845;BME280;10083;51.038;7.012;2023-05-25T12:01:24;103454.81;;;27.31;100.00
19845;BME280;10083;51.038;7.012;2023-05-25T12:03:52;103367.19;;;26.30;100.00
19845;BME280;10083;51.038;7.012;2023-05-25T12:06:40;103529.59;;;25.83;100.00
19845;BME280;10083;51.038;7.012;2023-05-25T12:09:10;103424.47;;;26.96;100.00
19845;BME280;10083;51.038;7.012;2023-05-25T12:11:41;103407.63;;;26.65;100.00
19845;BME280;10083;51.038;7.012;2023-05-25T12:14:10;103331.28;;;26.89;100.00
19845;BME280;10083;51.038;7.012;2023-05-25T12:16:40;103390.94;;;25.92;100.00
19845;BME280;10083;51.038;7.012;2023-05-25T12:19:08;103408.38;;;26.31;100.00
19845;BME280;10083;51.038;7.012;2023-05-25T12:21:39;103363.72;;;25.03;100.00
19845;BME280;10083;51.038;7.012;2023-05-25T12:24:06;103415.50;;;26.35;100.00
19845;BME280;10083;51.038;7.012;2023-05-25T12:26:47;103464.00;;;26.75;100.00
19845;BME280;10083;51.038;7.012;2023-05-25T12:29:14;103340.97;;;26.97;100.00
19845;BME280;10083;51.038;7.012;2023-05-25T12:31:43;103472.31;;;25.74;100.00
19845;BME280;10083;51.038;7.012;2023-05-25T12:34:11;103466.19;;;26.08;100.00
19845;BME280;10083;51.038;7.012;2023-05-25T12:36:45;103399.50;;;25.44;100.00
19845;BME280;10083;51.038;7.012;2023-05-25T12:39:14;103364.50;;;27.20;100.00
19845;BME280;10083;51.038;7.012;2023-05-25T12:41:48;103279.31;;;26.09;100.00
19845;BME280;10083;51.038;7.012;2023-05-25T12:44:17;103439.91;;;25.62;100.00
19845;BME280;10083;51.038;7.012;2023-05-25T12:46:44;103556.56;;;25.50;100.00
19845;BME280;10083;51.038;7.012;2023-05-25T12:49:33;103409.91;;;27.12;100.00
19845;BME280;10083;51.038;7.012;2023-05-25T12:52:01;103348.56;;;26.92;100.00
19845;BME280;10083;51.038;7.012;2023-05-25T12:54:34;103438.19;;;25.16;100.00
19845;BME280;10083;51.038;7.012;2023-05-25T12:57:04;103474.72;;;25.38;100.00
19845;BME280;10083;51.038;7.012;2023-05-25T12:59:32;103425.59;;;26.35;100.00
19845;BME280;10083;51.038;7.012;2023-05-25T13:01:59;103439.78;;;26.26;100.00
19845;BME280;10083;51.038;7.012;2023-05-25T13:04:27;103345.34;;;26.45;100.00
19845;BME280;10083;51.038;7.012;2023-05-25T13:06:54;103314.69;;;26.36;100.00
19845;BME280;10083;51.038;7.012;2023-05-25T13:09:23;103461.28;;;26.36;100.00